Time;durP1;ratioP1;P1;durP2;ratioP2;P2;SDS_P1;SDS_P2;PMS_P1;PMS_P2;Temp;Humidity;BMP_temperature;BMP_pressure;BME280_temperature;BME280_humidity;BME280_pressure;Samples;Min_cycle;Max_cycle;Signal;HPM_P1;HPM_P2
2023/09/15 00:04:06;;;;;;;6.53;4.40;;;;;;;19.60;61.76;100100.66;7686019;32;37252;-81
2023/09/15 00:08:22;;;;;;;8.45;4.82;;;;;;;19.75;61.07;100099.34;7684625;32;39453;-80
2023/09/15 00:12:40;;;;;;;7.97;4.57;;;;;;;19.74;60.71;100093.03;7684586;32;40764;-79
2023/09/15 00:16:56;;;;;;;11.85;5.10;;;;;;;19.65;60.94;100097.72;7685606;32;38843;-80
2023/09/15 00:21:16;;;;;;;8.23;4.87;;;;;;;19.64;60.72;100098.84;7685204;32;37276;-79
2023/09/15 00:25:33;;;;;;;8.68;5.22;;;;;;;19.58;60.71;100102.94;7685818;32;39087;-80
2023/09/15 00:29:49;;;;;;;10.13;5.20;;;;;;;19.55;60.46;100106.34;7685842;32;41347;-80
2023/09/15 00:34:06;;;;;;;9.38;5.10;;;;;;;19.39;60.58;100112.34;7685494;32;37801;-80
2023/09/15 00:38:22;;;;;;;9.30;5.78;;;;;;;19.38;60.42;100121.75;7685679;32;37733;-80
2023/09/15 00:42:38;;;;;;;8.68;5.53;;;;;;;19.26;60.78;100124.34;7685591;32;40022;-80
2023/09/15 00:46:54;;;;;;;8.73;5.25;;;;;;;19.39;60.43;100136.41;7685501;32;40868;-82
2023/09/15 00:51:11;;;;;;;7.90;5.37;;;;;;;19.27;61.08;100131.50;7685060;32;37980;-80
2023/09/15 00:55:29;;;;;;;8.95;5.80;;;;;;;19.13;61.68;100139.94;7685537;32;37741;-80
2023/09/15 00:59:45;;;;;;;9.88;5.78;;;;;;;19.33;61.10;100142.09;7685054;32;39509;-80
2023/09/15 01:04:02;;;;;;;8.90;5.62;;;;;;;19.30;61.26;100139.16;7685339;32;40641;-80
2023/09/15 01:08:19;;;;;;;8.43;5.22;;;;;;;19.42;60.72;100139.34;7684871;32;38219;-81
2023/09/15 01:12:35;;;;;;;8.65;5.45;;;;;;;19.42;60.71;100149.56;7685150;32;37033;-81
2023/09/15 01:17:09;;;;;;;8.32;5.03;;;;;;;19.32;60.99;100151.50;7685171;32;40144;-80
2023/09/15 01:21:44;;;;;;;9.38;5.57;;;;;;;19.45;60.39;100146.97;7685148;32;39985;-80
2023/09/15 01:26:44;;;;;;;7.93;4.95;;;;;;;19.26;61.28;100152.78;7685092;32;38131;-80
2023/09/15 01:31:00;;;;;;;11.20;4.95;;;;;;;19.17;61.43;100153.91;7684085;32;37122;-80
2023/09/15 01:35:17;;;;;;;9.00;5.60;;;;;;;19.13;61.62;100151.78;7684936;32;39320;-80
2023/09/15 01:39:33;;;;;;;8.65;5.53;;;;;;;19.23;61.29;100158.97;7684964;32;39953;-80
2023/09/15 01:43:51;;;;;;;8.98;5.80;;;;;;;19.32;61.18;100159.00;7684504;32;39207;-80
2023/09/15 01:48:08;;;;;;;8.95;5.62;;;;;;;19.33;60.96;100157.84;7685011;32;38065;-80
2023/09/15 01:52:25;;;;;;;9.52;5.82;;;;;;;19.28;60.87;100160.75;7683610;32;39464;-81
2023/09/15 01:56:41;;;;;;;11.07;5.47;;;;;;;19.19;60.76;100166.25;7684765;32;40405;-79
2023/09/15 02:00:57;;;;;;;10.70;5.90;;;;;;;19.20;60.57;100164.34;7683352;32;39196;-80
2023/09/15 02:05:23;;;;;;;9.85;5.57;;;;;;;19.20;60.42;100164.34;7683471;32;37684;-79
2023/09/15 02:09:39;;;;;;;8.65;5.75;;;;;;;19.42;59.56;100153.16;7683482;32;40174;-79
2023/09/15 02:13:55;;;;;;;9.73;5.82;;;;;;;19.23;59.99;100158.97;7684083;32;41485;-80
2023/09/15 02:18:12;;;;;;;8.50;5.60;;;;;;;19.16;60.10;100158.59;7684315;32;37812;-80
2023/09/15 02:22:28;;;;;;;9.98;6.30;;;;;;;19.24;59.88;100160.59;7684374;32;37796;-79
2023/09/15 02:26:44;;;;;;;10.15;6.18;;;;;;;19.30;59.87;100156.56;7684330;32;39376;-81
2023/09/15 02:31:06;;;;;;;8.60;5.53;;;;;;;19.22;60.07;100160.09;7684245;32;40455;-80
2023/09/15 02:35:22;;;;;;;9.30;5.72;;;;;;;19.20;60.14;100150.50;7682856;32;37911;-79
2023/09/15 02:39:38;;;;;;;9.48;5.95;;;;;;;19.40;59.19;100157.38;7683759;32;37250;-80
2023/09/15 02:43:55;;;;;;;9.82;6.10;;;;;;;19.09;60.03;100156.34;7683071;32;39401;-80
2023/09/15 02:48:11;;;;;;;9.57;5.35;;;;;;;19.21;59.54;100152.13;7683751;32;40091;-80
2023/09/15 02:52:28;;;;;;;11.60;6.15;;;;;;;18.99;59.92;100153.03;7683493;32;38630;-79
2023/09/15 02:56:44;;;;;;;10.07;6.10;;;;;;;19.10;59.42;100157.94;7683626;32;36810;-79
2023/09/15 03:01:09;;;;;;;9.75;6.18;;;;;;;19.07;59.46;100171.59;7683375;32;39470;-79
2023/09/15 03:05:26;;;;;;;9.68;5.70;;;;;;;18.74;60.58;100181.00;7683562;32;40842;-79
2023/09/15 03:09:43;;;;;;;8.35;5.35;;;;;;;18.68;61.08;100168.47;7681950;32;38770;-79
2023/09/15 03:13:59;;;;;;;9.30;5.87;;;;;;;18.79;60.67;100165.44;7683062;32;37260;-79
2023/09/15 03:18:15;;;;;;;9.43;6.32;;;;;;;18.72;61.22;100171.41;7683101;32;39404;-79
2023/09/15 03:22:32;;;;;;;9.10;5.85;;;;;;;18.85;61.04;100169.72;7683020;32;39701;-79
2023/09/15 03:26:48;;;;;;;10.43;6.32;;;;;;;18.82;61.31;100162.06;7682824;32;38640;-79
2023/09/15 03:31:04;;;;;;;10.05;6.28;;;;;;;18.81;61.47;100160.41;7682246;32;37242;-78
2023/09/15 03:35:21;;;;;;;9.23;6.18;;;;;;;18.90;61.09;100161.28;7682619;32;39450;-79
2023/09/15 03:39:37;;;;;;;10.80;6.30;;;;;;;18.83;61.21;100155.41;7682577;32;39958;-78
2023/09/15 03:43:54;;;;;;;9.93;5.90;;;;;;;18.84;61.49;100168.09;7682239;32;37985;-79
2023/09/15 03:48:10;;;;;;;10.65;6.25;;;;;;;18.79;61.77;100154.41;7682457;32;37780;-79
2023/09/15 03:52:26;;;;;;;10.82;6.80;;;;;;;18.84;61.56;100157.06;7682218;32;39359;-79
2023/09/15 03:56:42;;;;;;;10.70;6.72;;;;;;;18.50;62.32;100161.22;7683547;32;40048;-80
2023/09/15 04:00:59;;;;;;;11.12;6.25;;;;;;;18.54;62.30;100153.94;7685770;32;38847;-80
2023/09/15 04:05:15;;;;;;;9.13;5.97;;;;;;;18.50;62.49;100164.00;7685855;32;37999;-79
2023/09/15 04:09:33;;;;;;;8.68;5.82;;;;;;;18.36;62.92;100161.31;7685905;32;39920;-79
2023/09/15 04:13:50;;;;;;;11.10;5.93;;;;;;;18.49;62.48;100152.13;7685800;32;39936;-79
2023/09/15 04:18:08;;;;;;;9.30;6.07;;;;;;;18.70;61.82;100149.63;7685829;32;37945;-79
2023/09/15 04:22:25;;;;;;;9.98;5.95;;;;;;;18.71;61.83;100156.81;7685879;32;37831;-79
2023/09/15 04:26:42;;;;;;;9.52;5.93;;;;;;;18.56;62.66;100159.97;7685487;32;39492;-79
2023/09/15 04:30:58;;;;;;;10.18;6.20;;;;;;;18.53;63.06;100158.66;7685585;32;38598;-79
2023/09/15 04:35:14;;;;;;;10.70;5.90;;;;;;;18.76;62.54;100153.91;7685525;32;38834;-80
2023/09/15 04:39:30;;;;;;;9.85;6.62;;;;;;;18.68;62.96;100151.91;7685631;32;38114;-80
2023/09/15 04:43:47;;;;;;;11.50;6.12;;;;;;;18.64;63.14;100159.19;7685621;32;39245;-79
2023/09/15 04:48:03;;;;;;;9.45;6.30;;;;;;;18.72;62.99;100163.13;7685600;32;40060;-78
2023/09/15 04:52:20;;;;;;;9.30;5.87;;;;;;;18.76;63.02;100159.44;7685493;32;37746;-78
2023/09/15 04:56:36;;;;;;;8.85;5.68;;;;;;;18.76;63.07;100161.34;7685475;32;37794;-78
2023/09/15 05:00:59;;;;;;;13.00;6.40;;;;;;;18.79;62.96;100165.44;7685241;32;40163;-80
2023/09/15 05:05:15;;;;;;;11.10;5.85;;;;;;;18.63;63.61;100173.34;7685340;32;40757;-80
2023/09/15 05:09:31;;;;;;;11.07;5.90;;;;;;;18.80;62.97;100178.09;7685033;32;38740;-79
2023/09/15 05:13:48;;;;;;;10.75;6.47;;;;;;;18.91;62.67;100176.75;7685179;32;36869;-79
2023/09/15 05:18:04;;;;;;;11.88;5.82;;;;;;;18.71;63.40;100181.66;7685118;32;39391;-79
2023/09/15 05:22:20;;;;;;;10.38;5.75;;;;;;;18.84;63.21;100187.44;7684797;32;40079;-81
2023/09/15 05:26:37;;;;;;;10.00;6.55;;;;;;;18.47;64.76;100197.72;7685050;32;37978;-80
2023/09/15 05:30:59;;;;;;;11.98;6.90;;;;;;;18.81;63.37;100201.84;7684989;32;37875;-79
2023/09/15 05:35:16;;;;;;;10.18;6.47;;;;;;;18.80;63.27;100200.19;7684387;32;40192;-71
2023/09/15 05:39:32;;;;;;;11.30;6.60;;;;;;;19.10;62.83;100204.13;7684889;32;40810;-76
2023/09/15 05:43:48;;;;;;;11.55;7.30;;;;;;;19.08;63.67;100207.19;7679309;32;38832;-80
2023/09/15 05:48:05;;;;;;;11.75;7.00;;;;;;;19.37;62.67;100203.09;7683828;32;37840;-80
2023/09/15 05:52:21;;;;;;;11.93;7.55;;;;;;;19.12;63.08;100205.41;7683291;32;40207;-79
2023/09/15 05:56:38;;;;;;;13.10;8.02;;;;;;;19.01;63.34;100208.81;7684167;32;40871;-77
2023/09/15 06:00:57;;;;;;;10.75;7.12;;;;;;;19.35;61.87;100216.41;7684295;32;37942;-79
2023/09/15 06:05:14;;;;;;;11.57;7.20;;;;;;;19.58;61.49;100214.34;7683247;32;37052;-78
2023/09/15 06:09:30;;;;;;;10.50;7.10;;;;;;;19.24;62.06;100215.88;7684624;32;40182;-78
2023/09/15 06:13:47;;;;;;;12.32;7.05;;;;;;;19.33;62.33;100218.66;7684348;32;40068;-79
2023/09/15 06:18:03;;;;;;;12.93;6.50;;;;;;;19.39;61.82;100216.59;7683630;32;37835;-78
2023/09/15 06:22:20;;;;;;;10.95;7.25;;;;;;;19.72;61.04;100216.97;7684066;32;36950;-79
2023/09/15 06:26:38;;;;;;;12.60;7.53;;;;;;;19.77;60.50;100216.84;7684202;32;40078;-79
2023/09/15 06:30:54;;;;;;;9.98;6.47;;;;;;;19.97;59.46;100226.50;7684047;32;39649;-78
2023/09/15 06:35:13;;;;;;;12.37;7.15;;;;;;;20.09;59.25;100223.06;7682781;32;38089;-69
2023/09/15 06:39:30;;;;;;;11.70;7.32;;;;;;;20.23;59.18;100220.13;7683743;32;36071;-76
2023/09/15 06:43:46;;;;;;;10.82;6.85;;;;;;;20.56;58.33;100234.28;7683804;32;39888;-70
2023/09/15 06:48:02;;;;;;;13.07;6.68;;;;;;;20.81;57.62;100226.25;7683763;32;39965;-71
2023/09/15 06:52:19;;;;;;;14.63;6.00;;;;;;;21.19;56.89;100229.03;7683026;32;39209;-71
2023/09/15 06:56:35;;;;;;;11.18;6.20;;;;;;;21.34;55.73;100224.91;7682903;32;37975;-71
2023/09/15 07:00:55;;;;;;;10.80;5.85;;;;;;;21.27;55.48;100229.38;7683145;32;39141;-71
2023/09/15 07:05:11;;;;;;;10.23;6.40;;;;;;;21.31;55.57;100227.53;7683067;32;40031;-72
2023/09/15 07:09:28;;;;;;;9.63;5.55;;;;;;;21.63;54.41;100234.41;7682923;32;37717;-71
2023/09/15 07:13:44;;;;;;;9.80;5.97;;;;;;;20.96;56.23;100234.03;7683126;32;37161;-70
2023/09/15 07:18:04;;;;;;;12.25;6.85;;;;;;;21.11;56.76;100237.41;7683163;32;40056;-70
2023/09/15 07:22:20;;;;;;;10.05;6.07;;;;;;;20.92;56.87;100221.16;7682764;32;40943;-73
2023/09/15 07:26:37;;;;;;;10.05;5.87;;;;;;;21.57;55.54;100227.44;7682623;32;38020;-69
2023/09/15 07:31:06;;;;;;;10.02;5.90;;;;;;;21.66;55.13;100236.53;7684166;32;38072;-68
2023/09/15 07:35:23;;;;;;;11.30;6.32;;;;;;;21.90;54.04;100238.66;7686382;32;39401;-69
2023/09/15 07:39:39;;;;;;;11.93;6.35;;;;;;;22.07;53.50;100228.56;7686228;32;40011;-70
2023/09/15 07:44:00;;;;;;;9.25;5.85;;;;;;;22.11;53.70;100227.56;7685835;32;38643;-69
2023/09/15 07:48:17;;;;;;;7.95;5.28;;;;;;;22.06;53.29;100230.53;7686036;32;37946;-71
2023/09/15 07:52:35;;;;;;;9.20;5.82;;;;;;;21.96;53.29;100236.47;7686062;32;39313;-69
2023/09/15 07:56:51;;;;;;;8.27;4.78;;;;;;;22.29;52.18;100235.75;7685973;32;39897;-69
2023/09/15 08:01:07;;;;;;;5.70;4.22;;;;;;;22.62;51.67;100229.41;7685424;32;38879;-70
2023/09/15 08:05:24;;;;;;;7.95;4.40;;;;;;;22.52;52.07;100224.28;7686182;32;36866;-70
2023/09/15 08:09:40;;;;;;;8.23;4.50;;;;;;;22.87;51.06;100227.50;7685937;32;39551;-82
2023/09/15 08:13:56;;;;;;;7.18;4.60;;;;;;;22.47;50.77;100217.78;7685860;32;40007;-85
2023/09/15 08:18:13;;;;;;;8.10;3.95;;;;;;;22.95;50.22;100221.03;7685792;32;38729;-81
2023/09/15 08:22:31;;;;;;;6.97;4.10;;;;;;;23.27;49.32;100212.16;7685839;32;37043;-79
2023/09/15 08:26:48;;;;;;;8.50;4.22;;;;;;;22.71;51.27;100205.09;7685333;32;39087;-82
2023/09/15 08:31:05;;;;;;;9.55;4.43;;;;;;;23.24;49.89;100202.56;7685032;32;40864;-81
2023/09/15 08:35:22;;;;;;;7.18;4.15;;;;;;;22.44;51.10;100199.03;7685454;32;37837;-81
2023/09/15 08:39:38;;;;;;;8.05;4.47;;;;;;;22.74;51.07;100196.09;7685644;32;37595;-82
2023/09/15 08:43:55;;;;;;;7.70;4.65;;;;;;;23.18;50.58;100190.84;7685052;32;40257;-82
2023/09/15 08:48:14;;;;;;;6.75;4.45;;;;;;;22.72;51.02;100194.81;7684270;32;40848;-82
2023/09/15 08:52:32;;;;;;;8.88;4.57;;;;;;;23.29;49.64;100191.19;7685322;32;39029;-82
2023/09/15 08:56:48;;;;;;;5.72;3.80;;;;;;;23.37;48.35;100181.94;7685396;32;37053;-82
2023/09/15 09:01:07;;;;;;;8.88;4.45;;;;;;;23.49;47.90;100189.44;7685056;32;39491;-82
2023/09/15 09:05:24;;;;;;;4.65;3.15;;;;;;;23.77;48.84;100188.72;7682488;32;39755;-82
2023/09/15 09:09:41;;;;;;;5.90;3.83;;;;;;;23.42;46.65;100189.19;7681484;32;37783;-81
2023/09/15 09:13:58;;;;;;;5.07;3.70;;;;;;;23.83;46.29;100180.94;7683905;32;36859;-82
2023/09/15 09:18:16;;;;;;;6.25;3.67;;;;;;;24.57;44.90;100184.25;7684132;32;39052;-81
2023/09/15 09:22:34;;;;;;;5.80;3.70;;;;;;;24.67;45.26;100185.72;7684388;32;38980;-80
2023/09/15 09:26:57;;;;;;;6.28;3.60;;;;;;;24.16;46.33;100197.41;7684299;32;37950;-81
2023/09/15 09:31:15;;;;;;;5.82;3.45;;;;;;;24.48;45.63;100186.37;7683963;32;37626;-81
2023/09/15 09:35:31;;;;;;;4.87;3.20;;;;;;;25.09;43.78;100199.97;7684325;32;40145;-81
2023/09/15 09:39:47;;;;;;;6.15;3.10;;;;;;;25.67;42.30;100188.19;7682997;32;40928;-80
2023/09/15 09:44:04;;;;;;;3.83;2.72;;;;;;;26.00;41.01;100188.91;7684439;32;37778;-82
2023/09/15 09:48:23;;;;;;;4.60;2.95;;;;;;;26.70;39.98;100179.53;7684892;32;37154;-82
2023/09/15 09:52:41;;;;;;;4.85;3.12;;;;;;;26.29;40.59;100183.91;7682786;32;39534;-82
2023/09/15 09:56:57;;;;;;;4.70;3.08;;;;;;;27.16;38.79;100179.53;7683801;32;39921;-82
2023/09/15 10:01:14;;;;;;;4.43;2.70;;;;;;;27.36;38.03;100176.66;7683853;32;37885;-83
2023/09/15 10:05:31;;;;;;;6.07;3.25;;;;;;;26.84;38.32;100184.56;7683192;32;37024;-84
2023/09/15 10:09:48;;;;;;;4.12;2.97;;;;;;;25.89;40.09;100190.63;7683217;32;39414;-84
2023/09/15 10:14:05;;;;;;;4.78;3.50;;;;;;;25.18;42.37;100185.00;7683449;32;40531;-84
2023/09/15 10:18:21;;;;;;;4.55;3.30;;;;;;;25.76;41.58;100184.38;7683085;32;38009;-84
2023/09/15 10:22:38;;;;;;;4.32;2.97;;;;;;;25.89;40.64;100182.25;7684394;32;38088;-83
2023/09/15 10:26:54;;;;;;;6.43;3.12;;;;;;;25.98;40.50;100180.09;7683083;32;39354;-82
2023/09/15 10:31:11;;;;;;;7.12;3.28;;;;;;;26.10;41.31;100179.94;7684297;32;40803;-82
2023/09/15 10:35:29;;;;;;;4.47;3.10;;;;;;;26.40;40.92;100190.50;7682900;32;37138;-83
2023/09/15 10:39:46;;;;;;;4.78;3.08;;;;;;;26.30;41.24;100180.75;7683938;32;37140;-83
2023/09/15 10:44:03;;;;;;;6.28;3.08;;;;;;;26.46;40.57;100180.66;7683989;32;40080;-84
2023/09/15 10:48:19;;;;;;;3.90;2.60;;;;;;;26.30;40.98;100174.34;7683801;32;39863;-84
2023/09/15 10:52:37;;;;;;;6.95;3.22;;;;;;;26.03;40.67;100168.63;7683623;32;38017;-84
2023/09/15 10:56:55;;;;;;;4.47;3.15;;;;;;;26.01;40.64;100173.78;7683674;32;36145;-83
2023/09/15 11:01:11;;;;;;;5.30;3.35;;;;;;;26.02;40.75;100170.59;7682117;32;39333;-84
2023/09/15 11:05:28;;;;;;;4.07;2.85;;;;;;;26.16;40.22;100169.28;7684370;32;39685;-83
2023/09/15 11:09:45;;;;;;;3.58;2.83;;;;;;;26.07;40.90;100171.50;7686552;32;38043;-83
2023/09/15 11:14:01;;;;;;;4.70;3.22;;;;;;;26.34;40.60;100169.66;7686476;32;37011;-83
2023/09/15 11:18:18;;;;;;;4.50;3.20;;;;;;;26.09;41.01;100167.16;7686505;32;39212;-83
2023/09/15 11:22:39;;;;;;;4.03;2.90;;;;;;;26.41;41.64;100172.56;7686511;32;40819;-83
2023/09/15 11:26:56;;;;;;;3.72;2.50;;;;;;;26.17;40.75;100170.91;7686341;32;38079;-83
2023/09/15 11:31:13;;;;;;;7.05;4.55;;;;;;;26.20;40.97;100165.38;7686383;32;37161;-83
2023/09/15 11:35:30;;;;;;;9.98;6.72;;;;;;;25.63;42.29;100167.75;7686250;32;40129;-82
2023/09/15 11:39:50;;;;;;;9.45;6.68;;;;;;;25.56;42.23;100172.37;7685048;32;40739;-82
2023/09/15 11:44:08;;;;;;;3.92;2.83;;;;;;;26.05;40.79;100163.50;7686114;32;39006;-84
2023/09/15 11:48:25;;;;;;;14.00;8.77;;;;;;;25.89;41.11;100159.91;7686210;32;37335;-84
2023/09/15 11:52:41;;;;;;;25.98;22.08;;;;;;;25.91;41.26;100161.19;7684969;32;40001;-83
2023/09/15 11:56:58;;;;;;;13.27;10.50;;;;;;;26.01;41.36;100157.03;7685930;32;40567;-84
2023/09/15 12:01:16;;;;;;;11.55;5.10;;;;;;;26.28;40.19;100154.34;7684615;32;38281;-83
2023/09/15 12:05:32;;;;;;;5.53;2.90;;;;;;;26.33;40.73;100145.66;7686019;32;37281;-82
2023/09/15 12:09:51;;;;;;;4.93;2.83;;;;;;;26.42;41.79;100133.09;7686004;32;39359;-82
2023/09/15 12:14:07;;;;;;;5.68;2.97;;;;;;;26.35;42.39;100132.13;7684709;32;38858;-83
2023/09/15 12:18:26;;;;;;;4.60;2.90;;;;;;;26.45;42.16;100133.50;7685083;32;38909;-83
2023/09/15 12:22:44;;;;;;;4.80;2.90;;;;;;;26.48;41.36;100129.97;7685742;32;37044;-84
2023/09/15 12:27:02;;;;;;;6.32;2.90;;;;;;;25.95;42.20;100124.97;7685599;32;39288;-83
2023/09/15 12:31:20;;;;;;;4.07;2.95;;;;;;;25.56;42.59;100125.75;7685720;32;40082;-84
2023/09/15 12:35:40;;;;;;;5.07;2.90;;;;;;;25.97;42.70;100119.81;7685686;32;37051;-84
2023/09/15 12:39:56;;;;;;;5.80;3.08;;;;;;;25.95;41.79;100111.81;7685579;32;37092;-83
2023/09/15 12:44:12;;;;;;;3.45;2.40;;;;;;;26.30;41.29;100107.28;7685605;32;39484;-83
2023/09/15 12:48:29;;;;;;;10.38;3.17;;;;;;;26.17;40.24;100113.03;7685482;32;39984;-85
2023/09/15 12:52:46;;;;;;;6.95;3.17;;;;;;;26.18;39.84;100102.66;7685394;32;38154;-83
2023/09/15 12:57:03;;;;;;;4.32;2.65;;;;;;;26.17;39.80;100098.28;7685321;32;37152;-83
2023/09/15 13:01:19;;;;;;;5.20;3.12;;;;;;;25.81;41.17;100100.31;7685214;32;39340;-83
2023/09/15 13:05:35;;;;;;;4.35;2.78;;;;;;;25.75;41.53;100093.41;7685331;32;39929;-84
2023/09/15 13:09:52;;;;;;;4.50;2.83;;;;;;;25.95;40.82;100091.47;7684757;32;38809;-83
2023/09/15 13:14:08;;;;;;;4.78;2.62;;;;;;;26.05;40.72;100080.47;7685236;32;37032;-83
2023/09/15 13:18:24;;;;;;;4.32;2.87;;;;;;;26.17;40.59;100085.09;7685214;32;40118;-83
2023/09/15 13:22:41;;;;;;;4.35;2.62;;;;;;;26.26;40.53;100078.47;7685129;32;40936;-83
2023/09/15 13:26:57;;;;;;;3.55;2.70;;;;;;;26.06;39.12;100075.72;7685006;32;38069;-83
2023/09/15 13:31:13;;;;;;;3.95;2.75;;;;;;;26.24;38.39;100074.03;7684795;32;37842;-84
2023/09/15 13:35:30;;;;;;;4.32;2.65;;;;;;;26.65;37.94;100072.75;7684853;32;39178;-83
2023/09/15 13:39:46;;;;;;;4.85;2.53;;;;;;;27.51;36.48;100068.47;7685039;32;40554;-83
2023/09/15 13:44:03;;;;;;;3.67;2.30;;;;;;;27.95;35.30;100058.63;7685083;32;39030;-84
2023/09/15 13:48:20;;;;;;;3.03;2.50;;;;;;;27.45;35.31;100056.00;7684949;32;37045;-84
2023/09/15 13:52:36;;;;;;;3.50;2.35;;;;;;;28.07;35.14;100055.53;7683486;32;39447;-85
2023/09/15 13:56:53;;;;;;;4.70;2.37;;;;;;;29.06;32.10;100045.56;7684606;32;40766;-85
2023/09/15 14:01:10;;;;;;;5.95;2.42;;;;;;;29.62;30.95;100039.84;7684342;32;38032;-84
2023/09/15 14:05:27;;;;;;;4.37;2.45;;;;;;;29.89;30.43;100029.09;7684661;32;37924;-84
2023/09/15 14:09:43;;;;;;;2.42;1.98;;;;;;;30.12;28.74;100040.00;7684623;32;39337;-84
2023/09/15 14:13:59;;;;;;;4.20;2.20;;;;;;;30.19;27.89;100027.97;7684595;32;40183;-84
2023/09/15 14:18:16;;;;;;;4.57;2.33;;;;;;;29.53;28.68;100029.00;7684408;32;38571;-84
2023/09/15 14:22:32;;;;;;;4.12;2.00;;;;;;;29.71;28.62;100020.63;7684368;32;37889;-84
2023/09/15 14:26:49;;;;;;;2.47;2.15;;;;;;;30.08;28.49;100022.31;7683155;32;40217;-84
2023/09/15 14:31:05;;;;;;;2.95;2.20;;;;;;;30.31;27.96;100011.50;7684018;32;40861;-83
2023/09/15 14:35:21;;;;;;;4.00;2.53;;;;;;;30.52;27.45;100012.72;7683743;32;37921;-84
2023/09/15 14:39:38;;;;;;;5.82;2.20;;;;;;;30.32;27.83;100001.88;7683292;32;38141;-83
2023/09/15 14:43:55;;;;;;;5.18;2.37;;;;;;;30.30;27.30;100001.47;7684026;32;39108;-83
2023/09/15 14:48:13;;;;;;;5.70;2.40;;;;;;;29.50;28.71;100002.50;7683803;32;40777;-84
2023/09/15 14:52:30;;;;;;;3.97;2.28;;;;;;;29.94;28.10;100001.44;7683740;32;37773;-84
2023/09/15 14:56:46;;;;;;;5.57;2.22;;;;;;;29.24;28.95;100016.84;7682431;32;37568;-84
2023/09/15 15:01:03;;;;;;;4.03;2.35;;;;;;;28.87;29.33;100012.16;7683409;32;40196;-84
2023/09/15 15:05:19;;;;;;;3.58;2.12;;;;;;;29.06;29.56;100014.69;7683417;32;39888;-84
2023/09/15 15:09:37;;;;;;;2.35;2.00;;;;;;;28.94;30.56;100012.22;7683323;32;38079;-84
2023/09/15 15:13:53;;;;;;;9.90;2.55;;;;;;;28.05;31.53;100022.31;7683272;32;37027;-84
2023/09/15 15:18:16;;;;;;;2.75;2.17;;;;;;;28.59;30.91;100007.97;7683050;32;40133;-84
2023/09/15 15:22:33;;;;;;;5.60;2.50;;;;;;;28.67;30.63;100009.66;7683079;32;40161;-84
2023/09/15 15:26:49;;;;;;;2.08;1.70;;;;;;;28.63;30.49;100006.81;7682799;32;38634;-85
2023/09/15 15:31:12;;;;;;;2.80;2.08;;;;;;;28.04;30.90;100009.47;7682832;32;37102;-84
2023/09/15 15:35:29;;;;;;;3.40;2.65;;;;;;;27.78;31.54;100007.56;7682668;32;39294;-84
2023/09/15 15:39:48;;;;;;;4.12;2.45;;;;;;;27.63;33.04;100015.03;7683019;32;39705;-84
2023/09/15 15:44:08;;;;;;;3.70;2.50;;;;;;;27.62;32.77;100013.41;7682714;32;38153;-84
2023/09/15 15:48:25;;;;;;;4.35;2.33;;;;;;;28.10;32.25;100010.75;7682520;32;37581;-84
2023/09/15 15:52:41;;;;;;;3.17;2.22;;;;;;;28.60;30.64;100007.59;7684640;32;39583;-84
2023/09/15 15:56:58;;;;;;;2.58;2.12;;;;;;;28.89;29.83;100009.78;7685961;32;40643;-84
2023/09/15 16:01:14;;;;;;;3.83;2.33;;;;;;;29.06;29.48;100008.28;7685769;32;37869;-83
2023/09/15 16:05:30;;;;;;;8.10;2.53;;;;;;;30.23;28.70;100003.47;7685991;32;38076;-84
2023/09/15 16:09:47;;;;;;;3.28;2.40;;;;;;;31.92;26.41;100006.66;7685981;32;40121;-85
2023/09/15 16:14:03;;;;;;;9.02;2.58;;;;;;;33.48;24.12;100001.19;7686134;32;38002;-84
2023/09/15 16:18:20;;;;;;;5.43;2.50;;;;;;;34.01;23.37;100002.50;7685688;32;38100;-84
2023/09/15 16:22:47;;;;;;;4.10;2.70;;;;;;;34.38;25.26;100003.53;7685976;32;36946;-83
2023/09/15 16:27:03;;;;;;;4.28;2.30;;;;;;;34.41;25.65;100001.88;7685940;32;39400;-86
2023/09/15 16:31:20;;;;;;;2.60;2.00;;;;;;;33.63;26.66;100007.44;7685772;32;40691;-84
2023/09/15 16:35:37;;;;;;;3.47;2.20;;;;;;;33.03;26.75;100006.94;7685553;32;37632;-86
2023/09/15 16:39:53;;;;;;;4.62;2.65;;;;;;;31.56;28.84;100008.88;7685633;32;37823;-86
2023/09/15 16:44:09;;;;;;;4.65;2.53;;;;;;;30.45;31.08;100013.53;7685469;32;39382;-85
2023/09/15 16:48:27;;;;;;;3.95;2.65;;;;;;;29.57;33.08;100016.56;7685559;32;40731;-86
2023/09/15 16:52:43;;;;;;;5.35;2.97;;;;;;;28.75;34.81;100016.91;7685412;32;38146;-86
2023/09/15 16:57:02;;;;;;;12.70;3.10;;;;;;;28.17;36.33;100020.41;7685464;32;36998;-84
2023/09/15 17:01:19;;;;;;;5.22;2.62;;;;;;;27.88;37.05;100031.31;7685281;32;39467;-84
2023/09/15 17:05:35;;;;;;;4.32;2.67;;;;;;;27.43;37.26;100035.97;7684724;32;40843;-85
2023/09/15 17:09:52;;;;;;;6.05;2.70;;;;;;;27.05;37.91;100040.63;7685173;32;38823;-85
2023/09/15 17:14:09;;;;;;;4.70;2.53;;;;;;;26.69;38.20;100046.50;7685311;32;37103;-85
2023/09/15 17:18:26;;;;;;;6.03;2.95;;;;;;;26.27;39.21;100038.97;7685178;32;39392;-85
2023/09/15 17:22:42;;;;;;;3.53;2.37;;;;;;;25.90;40.26;100049.84;7685286;32;40484;-85
2023/09/15 17:27:00;;;;;;;5.62;2.58;;;;;;;25.61;39.98;100058.47;7685057;32;38106;-86
2023/09/15 17:31:17;;;;;;;5.53;2.28;;;;;;;25.28;40.06;100064.50;7685107;32;37236;-85
2023/09/15 17:35:33;;;;;;;5.95;2.60;;;;;;;24.85;40.14;100069.06;7684959;32;40210;-85
2023/09/15 17:39:50;;;;;;;3.03;2.35;;;;;;;24.85;40.08;100072.69;7685029;32;41378;-85
2023/09/15 17:44:07;;;;;;;3.35;2.60;;;;;;;24.59;40.79;100072.44;7685115;32;38868;-84
2023/09/15 17:48:24;;;;;;;6.12;2.55;;;;;;;24.45;40.56;100078.41;7684904;32;37066;-85
2023/09/15 17:52:41;;;;;;;5.18;2.50;;;;;;;24.12;41.80;100093.47;7684859;32;40218;-85
2023/09/15 17:56:58;;;;;;;4.32;2.55;;;;;;;24.04;42.04;100094.44;7684748;32;39728;-85
2023/09/15 18:01:15;;;;;;;4.93;2.87;;;;;;;23.90;42.53;100098.44;7684525;32;37968;-85
2023/09/15 18:05:33;;;;;;;3.47;2.75;;;;;;;23.91;42.59;100100.06;7684740;32;37016;-85
2023/09/15 18:09:51;;;;;;;12.43;3.35;;;;;;;23.73;43.62;100104.28;7684618;32;39178;-85
2023/09/15 18:14:08;;;;;;;5.32;3.42;;;;;;;23.72;44.04;100106.25;7683578;32;39552;-85
2023/09/15 18:18:24;;;;;;;4.95;3.35;;;;;;;23.52;45.22;100110.81;7684232;32;37972;-85
2023/09/15 18:22:41;;;;;;;4.90;3.17;;;;;;;23.43;45.66;100101.81;7684522;32;37931;-86
2023/09/15 18:26:57;;;;;;;6.72;3.37;;;;;;;23.43;46.02;100112.94;7684335;32;39328;-84
2023/09/15 18:31:15;;;;;;;5.82;3.40;;;;;;;23.40;46.14;100111.69;7684203;32;40832;-84
2023/09/15 18:35:31;;;;;;;8.65;4.10;;;;;;;23.35;46.43;100111.94;7683934;32;37980;-84
2023/09/15 18:39:47;;;;;;;8.10;3.28;;;;;;;23.33;46.58;100111.44;7683161;32;37787;-85
2023/09/15 18:44:04;;;;;;;5.55;2.90;;;;;;;23.32;46.70;100122.91;7683546;32;39259;-84
2023/09/15 18:48:20;;;;;;;9.18;3.42;;;;;;;23.33;46.60;100130.09;7683919;32;40533;-85
2023/09/15 18:52:36;;;;;;;7.07;3.00;;;;;;;23.33;46.33;100122.56;7682774;32;38036;-82
2023/09/15 18:56:56;;;;;;;4.37;3.15;;;;;;;23.09;46.81;100131.75;7683607;32;38133;-83
2023/09/15 19:01:12;;;;;;;5.55;3.45;;;;;;;22.97;47.30;100137.28;7683484;32;39195;-81
2023/09/15 19:05:32;;;;;;;7.37;3.20;;;;;;;22.84;47.83;100128.13;7682763;32;39975;-82
2023/09/15 19:09:48;;;;;;;8.32;3.47;;;;;;;22.70;48.33;100136.81;7687651;32;38514;-82
2023/09/15 19:14:05;;;;;;;4.70;3.03;;;;;;;22.54;48.72;100128.31;7695217;32;37827;-83
2023/09/15 19:18:23;;;;;;;5.47;3.20;;;;;;;22.60;48.38;100124.16;7683349;32;39315;-83
2023/09/15 19:22:39;;;;;;;5.50;2.95;;;;;;;22.57;48.08;100135.16;7665067;32;39045;-84
2023/09/15 19:26:56;;;;;;;6.35;3.65;;;;;;;22.53;48.01;100139.78;7684289;32;37996;-84
2023/09/15 19:31:12;;;;;;;4.03;2.78;;;;;;;22.56;47.81;100137.12;7686370;32;37623;-84
2023/09/15 19:35:29;;;;;;;5.47;3.00;;;;;;;22.42;48.03;100134.69;7686996;32;39300;-83
2023/09/15 19:39:46;;;;;;;4.68;3.08;;;;;;;22.30;48.28;100134.63;7686213;32;40801;-84
2023/09/15 19:44:02;;;;;;;4.15;2.42;;;;;;;22.22;48.56;100130.75;7685884;32;37685;-83
2023/09/15 19:48:18;;;;;;;3.17;2.42;;;;;;;22.09;48.50;100135.47;7686230;32;37867;-83
2023/09/15 19:52:34;;;;;;;4.47;2.60;;;;;;;21.95;48.76;100134.94;7685651;32;39689;-83
2023/09/15 19:56:53;;;;;;;4.85;2.83;;;;;;;21.73;49.56;100150.78;7685551;32;40045;-84